Peosta, Iowa
Current Conditions -  °F | °C
As of 12:53 AM on Thursday 23 Oct 2014 (Local Time) from KDBQ Reporting Station
Clear Clear  
Wind Chill: 38°   Ceiling: Unl
Heat Index: 44°   Visibility: 10mi
Dew Point: 37°   Wind: 13mph
Humidity: 76%   Direction: 170°S
Pressure: 30.16"   Gusts: NA
Location:  42.45°N, 90.85°W
Report Text: KDBQ 230553Z AUTO 17011KT 10SM CLR 07/03 A3016 RMK AO2 SLP219 T00670028 10083 20044 401440011 58010
Loading
Personal Weather Stations






























Interactive Weather Map
Tropical Storm Tracking
New forecast layout! Learn more

10-Day Weather Forecast

Advertisements
Track Severe Weather on mobile